sensor_id;sensor_type;location;lat;lon;timestamp;P1;durP1;ratioP1;P2;durP2;ratioP2
69414;SDS011;56608;43.530;-5.652;2022-12-29T00:00:21;11.20;;;4.25;;
69414;SDS011;56608;43.530;-5.652;2022-12-29T00:01:22;9.50;;;3.80;;
69414;SDS011;56608;43.530;-5.652;2022-12-29T00:02:23;10.70;;;4.00;;
69414;SDS011;56608;43.530;-5.652;2022-12-29T00:03:25;8.18;;;4.00;;
69414;SDS011;56608;43.530;-5.652;2022-12-29T00:04:26;12.07;;;4.15;;
69414;SDS011;56608;43.530;-5.652;2022-12-29T00:06:29;10.02;;;3.90;;
69414;SDS011;56608;43.530;-5.652;2022-12-29T00:07:31;9.50;;;4.20;;
69414;SDS011;56608;43.530;-5.652;2022-12-29T00:08:32;14.45;;;4.75;;
69414;SDS011;56608;43.530;-5.652;2022-12-29T00:09:40;11.95;;;4.55;;
69414;SDS011;56608;43.530;-5.652;2022-12-29T00:10:41;10.68;;;3.97;;
69414;SDS011;56608;43.530;-5.652;2022-12-29T00:11:43;11.85;;;4.57;;
69414;SDS011;56608;43.530;-5.652;2022-12-29T00:12:44;14.60;;;4.25;;
69414;SDS011;56608;43.530;-5.652;2022-12-29T00:14:21;12.52;;;4.32;;
69414;SDS011;56608;43.530;-5.652;2022-12-29T00:15:41;9.25;;;3.95;;
69414;SDS011;56608;43.530;-5.652;2022-12-29T00:16:43;12.37;;;4.00;;
69414;SDS011;56608;43.530;-5.652;2022-12-29T00:17:46;11.65;;;4.10;;
69414;SDS011;56608;43.530;-5.652;2022-12-29T00:18:47;8.60;;;4.10;;
69414;SDS011;56608;43.530;-5.652;2022-12-29T00:19:48;11.00;;;4.10;;
69414;SDS011;56608;43.530;-5.652;2022-12-29T00:21:15;9.85;;;4.12;;
69414;SDS011;56608;43.530;-5.652;2022-12-29T00:22:37;9.23;;;3.97;;
69414;SDS011;56608;43.530;-5.652;2022-12-29T00:23:57;11.07;;;4.72;;
69414;SDS011;56608;43.530;-5.652;2022-12-29T00:25:17;9.25;;;4.35;;
69414;SDS011;56608;43.530;-5.652;2022-12-29T00:26:37;11.30;;;4.62;;
69414;SDS011;56608;43.530;-5.652;2022-12-29T00:27:57;11.73;;;4.50;;
69414;SDS011;56608;43.530;-5.652;2022-12-29T00:29:17;13.48;;;4.53;;
69414;SDS011;56608;43.530;-5.652;2022-12-29T00:30:37;13.30;;;5.03;;
69414;SDS011;56608;43.530;-5.652;2022-12-29T00:31:58;15.27;;;4.47;;
69414;SDS011;56608;43.530;-5.652;2022-12-29T00:33:19;13.98;;;3.97;;
69414;SDS011;56608;43.530;-5.652;2022-12-29T00:34:40;9.30;;;3.97;;
69414;SDS011;56608;43.530;-5.652;2022-12-29T00:36:04;15.68;;;6.25;;
69414;SDS011;56608;43.530;-5.652;2022-12-29T00:37:12;11.05;;;3.72;;
69414;SDS011;56608;43.530;-5.652;2022-12-29T00:38:14;9.43;;;3.42;;
69414;SDS011;56608;43.530;-5.652;2022-12-29T00:39:34;8.93;;;3.47;;
69414;SDS011;56608;43.530;-5.652;2022-12-29T00:40:54;10.00;;;3.50;;
69414;SDS011;56608;43.530;-5.652;2022-12-29T00:42:14;9.52;;;3.28;;
69414;SDS011;56608;43.530;-5.652;2022-12-29T00:43:34;9.32;;;3.70;;
69414;SDS011;56608;43.530;-5.652;2022-12-29T00:44:54;12.75;;;4.12;;
69414;SDS011;56608;43.530;-5.652;2022-12-29T00:45:54;12.37;;;3.70;;
69414;SDS011;56608;43.530;-5.652;2022-12-29T00:46:56;9.30;;;3.80;;
69414;SDS011;56608;43.530;-5.652;2022-12-29T00:47:57;8.30;;;3.87;;
69414;SDS011;56608;43.530;-5.652;2022-12-29T00:48:58;10.80;;;3.60;;
69414;SDS011;56608;43.530;-5.652;2022-12-29T00:50:18;7.03;;;3.17;;
69414;SDS011;56608;43.530;-5.652;2022-12-29T00:51:19;8.00;;;3.55;;
69414;SDS011;56608;43.530;-5.652;2022-12-29T00:52:20;8.85;;;3.70;;
69414;SDS011;56608;43.530;-5.652;2022-12-29T00:53:22;10.25;;;3.30;;
69414;SDS011;56608;43.530;-5.652;2022-12-29T00:54:23;6.20;;;3.20;;
69414;SDS011;56608;43.530;-5.652;2022-12-29T00:55:24;11.90;;;3.90;;
69414;SDS011;56608;43.530;-5.652;2022-12-29T00:56:26;11.98;;;4.12;;
69414;SDS011;56608;43.530;-5.652;2022-12-29T00:57:27;10.00;;;3.30;;
69414;SDS011;56608;43.530;-5.652;2022-12-29T00:58:29;13.55;;;3.97;;
69414;SDS011;56608;43.530;-5.652;2022-12-29T00:59:31;10.77;;;4.40;;
69414;SDS011;56608;43.530;-5.652;2022-12-29T01:00:33;14.65;;;4.50;;
69414;SDS011;56608;43.530;-5.652;2022-12-29T01:01:34;10.75;;;4.15;;
69414;SDS011;56608;43.530;-5.652;2022-12-29T01:02:37;8.48;;;4.03;;
69414;SDS011;56608;43.530;-5.652;2022-12-29T01:03:38;12.95;;;4.45;;
69414;SDS011;56608;43.530;-5.652;2022-12-29T01:04:39;12.50;;;4.10;;
69414;SDS011;56608;43.530;-5.652;2022-12-29T01:05:41;7.85;;;4.10;;
69414;SDS011;56608;43.530;-5.652;2022-12-29T01:06:42;9.50;;;4.07;;
69414;SDS011;56608;43.530;-5.652;2022-12-29T01:07:44;11.43;;;4.20;;
69414;SDS011;56608;43.530;-5.652;2022-12-29T01:08:44;10.17;;;4.03;;
69414;SDS011;56608;43.530;-5.652;2022-12-29T01:09:46;12.68;;;3.85;;
69414;SDS011;56608;43.530;-5.652;2022-12-29T01:11:08;9.98;;;4.12;;
69414;SDS011;56608;43.530;-5.652;2022-12-29T01:12:12;8.45;;;3.97;;
69414;SDS011;56608;43.530;-5.652;2022-12-29T01:14:13;7.05;;;3.05;;
69414;SDS011;56608;43.530;-5.652;2022-12-29T01:15:15;9.32;;;3.70;;
69414;SDS011;56608;43.530;-5.652;2022-12-29T01:16:16;8.63;;;3.43;;
69414;SDS011;56608;43.530;-5.652;2022-12-29T01:17:17;5.87;;;3.20;;
69414;SDS011;56608;43.530;-5.652;2022-12-29T01:18:19;6.35;;;3.10;;
69414;SDS011;56608;43.530;-5.652;2022-12-29T01:19:22;6.95;;;3.10;;
69414;SDS011;56608;43.530;-5.652;2022-12-29T01:20:23;5.85;;;2.97;;
69414;SDS011;56608;43.530;-5.652;2022-12-29T01:21:25;9.00;;;3.17;;
69414;SDS011;56608;43.530;-5.652;2022-12-29T01:23:28;11.12;;;3.05;;
69414;SDS011;56608;43.530;-5.652;2022-12-29T01:24:30;12.45;;;3.30;;
69414;SDS011;56608;43.530;-5.652;2022-12-29T01:25:31;8.50;;;3.03;;
69414;SDS011;56608;43.530;-5.652;2022-12-29T01:26:32;8.38;;;3.20;;
69414;SDS011;56608;43.530;-5.652;2022-12-29T01:28:35;5.55;;;2.67;;
69414;SDS011;56608;43.530;-5.652;2022-12-29T01:29:36;11.90;;;3.25;;
69414;SDS011;56608;43.530;-5.652;2022-12-29T01:30:38;8.30;;;3.20;;
69414;SDS011;56608;43.530;-5.652;2022-12-29T01:31:39;7.78;;;3.15;;
69414;SDS011;56608;43.530;-5.652;2022-12-29T01:32:41;5.12;;;3.10;;
69414;SDS011;56608;43.530;-5.652;2022-12-29T01:33:42;7.93;;;3.60;;
69414;SDS011;56608;43.530;-5.652;2022-12-29T01:34:44;7.25;;;3.35;;
69414;SDS011;56608;43.530;-5.652;2022-12-29T01:35:45;6.57;;;3.03;;
69414;SDS011;56608;43.530;-5.652;2022-12-29T01:36:47;10.95;;;3.37;;
69414;SDS011;56608;43.530;-5.652;2022-12-29T01:37:48;11.05;;;3.62;;
69414;SDS011;56608;43.530;-5.652;2022-12-29T01:38:50;6.60;;;3.03;;
69414;SDS011;56608;43.530;-5.652;2022-12-29T01:39:51;6.57;;;3.40;;
69414;SDS011;56608;43.530;-5.652;2022-12-29T01:40:52;8.45;;;3.70;;
69414;SDS011;56608;43.530;-5.652;2022-12-29T01:41:54;10.55;;;4.00;;
69414;SDS011;56608;43.530;-5.652;2022-12-29T01:42:55;8.00;;;3.67;;
69414;SDS011;56608;43.530;-5.652;2022-12-29T01:43:57;12.27;;;4.22;;
69414;SDS011;56608;43.530;-5.652;2022-12-29T01:45:02;8.68;;;3.62;;
69414;SDS011;56608;43.530;-5.652;2022-12-29T01:46:16;7.18;;;3.85;;
69414;SDS011;56608;43.530;-5.652;2022-12-29T01:48:30;12.13;;;4.25;;
69414;SDS011;56608;43.530;-5.652;2022-12-29T01:49:32;11.40;;;4.30;;
69414;SDS011;56608;43.530;-5.652;2022-12-29T01:50:34;9.60;;;3.77;;
69414;SDS011;56608;43.530;-5.652;2022-12-29T01:51:42;10.05;;;4.20;;
69414;SDS011;56608;43.530;-5.652;2022-12-29T01:53:08;13.05;;;4.53;;
69414;SDS011;56608;43.530;-5.652;2022-12-29T01:54:29;12.05;;;4.30;;
69414;SDS011;56608;43.530;-5.652;2022-12-29T01:55:36;8.48;;;4.03;;
69414;SDS011;56608;43.530;-5.652;2022-12-29T01:56:41;7.15;;;3.97;;
69414;SDS011;56608;43.530;-5.652;2022-12-29T01:57:44;9.07;;;3.90;;
69414;SDS011;56608;43.530;-5.652;2022-12-29T01:58:50;9.13;;;3.72;;
69414;SDS011;56608;43.530;-5.652;2022-12-29T02:00:01;7.85;;;4.03;;
69414;SDS011;56608;43.530;-5.652;2022-12-29T02:01:09;8.73;;;3.92;;
69414;SDS011;56608;43.530;-5.652;2022-12-29T02:03:11;9.93;;;4.50;;
69414;SDS011;56608;43.530;-5.652;2022-12-29T02:04:13;11.45;;;4.50;;
69414;SDS011;56608;43.530;-5.652;2022-12-29T02:05:29;10.40;;;5.00;;
69414;SDS011;56608;43.530;-5.652;2022-12-29T02:06:45;10.40;;;4.53;;
69414;SDS011;56608;43.530;-5.652;2022-12-29T02:07:59;11.52;;;4.60;;
69414;SDS011;56608;43.530;-5.652;2022-12-29T02:09:02;8.38;;;5.25;;
69414;SDS011;56608;43.530;-5.652;2022-12-29T02:10:03;9.68;;;4.72;;
69414;SDS011;56608;43.530;-5.652;2022-12-29T02:11:05;11.45;;;4.82;;
69414;SDS011;56608;43.530;-5.652;2022-12-29T02:12:08;10.77;;;5.05;;
69414;SDS011;56608;43.530;-5.652;2022-12-29T02:13:10;10.52;;;5.05;;
69414;SDS011;56608;43.530;-5.652;2022-12-29T02:14:12;11.48;;;4.72;;
69414;SDS011;56608;43.530;-5.652;2022-12-29T02:15:14;9.45;;;3.87;;
69414;SDS011;56608;43.530;-5.652;2022-12-29T02:20:37;7.15;;;3.60;;
69414;SDS011;56608;43.530;-5.652;2022-12-29T02:23:30;11.50;;;3.75;;
69414;SDS011;56608;43.530;-5.652;2022-12-29T02:25:04;9.73;;;3.83;;
69414;SDS011;56608;43.530;-5.652;2022-12-29T02:28:28;9.65;;;4.25;;
69414;SDS011;56608;43.530;-5.652;2022-12-29T02:30:06;9.68;;;4.28;;
69414;SDS011;56608;43.530;-5.652;2022-12-29T02:37:17;7.95;;;4.65;;
69414;SDS011;56608;43.530;-5.652;2022-12-29T02:38:29;9.57;;;3.45;;
69414;SDS011;56608;43.530;-5.652;2022-12-29T02:39:48;10.65;;;3.72;;
69414;SDS011;56608;43.530;-5.652;2022-12-29T02:41:02;10.65;;;3.72;;
69414;SDS011;56608;43.530;-5.652;2022-12-29T02:42:23;10.75;;;3.90;;
69414;SDS011;56608;43.530;-5.652;2022-12-29T02:46:04;8.68;;;3.70;;
69414;SDS011;56608;43.530;-5.652;2022-12-29T02:51:06;13.38;;;4.05;;
69414;SDS011;56608;43.530;-5.652;2022-12-29T02:52:16;10.35;;;4.12;;
69414;SDS011;56608;43.530;-5.652;2022-12-29T02:53:23;10.00;;;4.10;;
69414;SDS011;56608;43.530;-5.652;2022-12-29T02:54:44;10.05;;;3.87;;
69414;SDS011;56608;43.530;-5.652;2022-12-29T02:55:51;9.30;;;3.83;;
69414;SDS011;56608;43.530;-5.652;2022-12-29T02:56:53;10.80;;;4.40;;
69414;SDS011;56608;43.530;-5.652;2022-12-29T02:58:09;10.10;;;4.10;;
69414;SDS011;56608;43.530;-5.652;2022-12-29T02:59:16;10.43;;;4.03;;
69414;SDS011;56608;43.530;-5.652;2022-12-29T03:00:18;8.52;;;4.20;;
69414;SDS011;56608;43.530;-5.652;2022-12-29T03:07:31;8.52;;;4.43;;
69414;SDS011;56608;43.530;-5.652;2022-12-29T03:10:24;10.77;;;3.47;;
69414;SDS011;56608;43.530;-5.652;2022-12-29T03:11:27;8.57;;;3.72;;
69414;SDS011;56608;43.530;-5.652;2022-12-29T03:14:32;10.60;;;3.50;;
69414;SDS011;56608;43.530;-5.652;2022-12-29T03:16:24;7.53;;;3.83;;
69414;SDS011;56608;43.530;-5.652;2022-12-29T03:20:10;10.80;;;3.85;;
69414;SDS011;56608;43.530;-5.652;2022-12-29T03:21:35;9.05;;;3.70;;
69414;SDS011;56608;43.530;-5.652;2022-12-29T03:23:03;9.15;;;3.60;;
69414;SDS011;56608;43.530;-5.652;2022-12-29T03:24:07;11.57;;;4.32;;
69414;SDS011;56608;43.530;-5.652;2022-12-29T03:25:10;9.40;;;4.05;;
69414;SDS011;56608;43.530;-5.652;2022-12-29T03:26:16;11.93;;;3.78;;
69414;SDS011;56608;43.530;-5.652;2022-12-29T03:28:03;5.65;;;3.60;;
69414;SDS011;56608;43.530;-5.652;2022-12-29T03:28:53;12.77;;;4.22;;
69414;SDS011;56608;43.530;-5.652;2022-12-29T03:30:00;10.57;;;3.53;;
69414;SDS011;56608;43.530;-5.652;2022-12-29T03:31:03;13.38;;;4.18;;
69414;SDS011;56608;43.530;-5.652;2022-12-29T03:32:07;9.75;;;3.60;;
69414;SDS011;56608;43.530;-5.652;2022-12-29T03:33:12;7.15;;;3.97;;
69414;SDS011;56608;43.530;-5.652;2022-12-29T03:34:16;7.95;;;3.60;;
69414;SDS011;56608;43.530;-5.652;2022-12-29T03:35:20;8.18;;;4.07;;
69414;SDS011;56608;43.530;-5.652;2022-12-29T03:36:26;9.10;;;4.07;;
69414;SDS011;56608;43.530;-5.652;2022-12-29T03:37:40;8.07;;;3.58;;
69414;SDS011;56608;43.530;-5.652;2022-12-29T03:39:06;8.05;;;3.60;;
69414;SDS011;56608;43.530;-5.652;2022-12-29T03:40:12;7.75;;;3.55;;
69414;SDS011;56608;43.530;-5.652;2022-12-29T03:41:16;11.02;;;4.40;;
69414;SDS011;56608;43.530;-5.652;2022-12-29T03:42:21;7.00;;;3.20;;
69414;SDS011;56608;43.530;-5.652;2022-12-29T03:43:26;9.48;;;3.45;;
69414;SDS011;56608;43.530;-5.652;2022-12-29T03:44:32;8.20;;;3.22;;
69414;SDS011;56608;43.530;-5.652;2022-12-29T03:45:37;12.13;;;3.20;;
69414;SDS011;56608;43.530;-5.652;2022-12-29T03:46:39;7.72;;;3.00;;
69414;SDS011;56608;43.530;-5.652;2022-12-29T03:47:41;7.55;;;3.65;;
69414;SDS011;56608;43.530;-5.652;2022-12-29T03:48:42;11.90;;;3.80;;
69414;SDS011;56608;43.530;-5.652;2022-12-29T03:49:44;11.98;;;4.40;;
69414;SDS011;56608;43.530;-5.652;2022-12-29T03:50:45;9.40;;;3.42;;
69414;SDS011;56608;43.530;-5.652;2022-12-29T03:51:45;12.75;;;4.50;;
69414;SDS011;56608;43.530;-5.652;2022-12-29T03:52:47;9.05;;;3.30;;
69414;SDS011;56608;43.530;-5.652;2022-12-29T03:53:49;9.05;;;3.05;;
69414;SDS011;56608;43.530;-5.652;2022-12-29T03:54:49;9.57;;;3.17;;
69414;SDS011;56608;43.530;-5.652;2022-12-29T03:55:51;10.90;;;3.42;;
69414;SDS011;56608;43.530;-5.652;2022-12-29T03:56:52;8.13;;;2.92;;
69414;SDS011;56608;43.530;-5.652;2022-12-29T03:57:54;7.60;;;2.80;;
69414;SDS011;56608;43.530;-5.652;2022-12-29T03:58:55;8.68;;;2.87;;
69414;SDS011;56608;43.530;-5.652;2022-12-29T03:59:56;8.00;;;2.65;;
69414;SDS011;56608;43.530;-5.652;2022-12-29T04:00:57;9.10;;;3.10;;
69414;SDS011;56608;43.530;-5.652;2022-12-29T04:01:59;6.40;;;2.80;;
69414;SDS011;56608;43.530;-5.652;2022-12-29T04:03:00;8.95;;;2.70;;
69414;SDS011;56608;43.530;-5.652;2022-12-29T04:04:02;7.53;;;2.75;;
69414;SDS011;56608;43.530;-5.652;2022-12-29T04:05:02;14.83;;;3.23;;
69414;SDS011;56608;43.530;-5.652;2022-12-29T04:06:04;8.45;;;2.75;;
69414;SDS011;56608;43.530;-5.652;2022-12-29T04:07:05;9.07;;;2.57;;
69414;SDS011;56608;43.530;-5.652;2022-12-29T04:08:07;9.48;;;2.72;;
69414;SDS011;56608;43.530;-5.652;2022-12-29T04:09:09;6.50;;;2.15;;
69414;SDS011;56608;43.530;-5.652;2022-12-29T04:10:11;7.28;;;2.53;;
69414;SDS011;56608;43.530;-5.652;2022-12-29T04:11:12;8.63;;;2.50;;
69414;SDS011;56608;43.530;-5.652;2022-12-29T04:12:14;8.10;;;2.10;;
69414;SDS011;56608;43.530;-5.652;2022-12-29T04:13:15;4.50;;;1.80;;
69414;SDS011;56608;43.530;-5.652;2022-12-29T04:14:17;2.83;;;1.35;;
69414;SDS011;56608;43.530;-5.652;2022-12-29T04:15:19;4.22;;;1.30;;
69414;SDS011;56608;43.530;-5.652;2022-12-29T04:16:20;4.30;;;1.02;;
69414;SDS011;56608;43.530;-5.652;2022-12-29T04:17:21;3.30;;;1.27;;
69414;SDS011;56608;43.530;-5.652;2022-12-29T04:18:23;5.82;;;2.22;;
69414;SDS011;56608;43.530;-5.652;2022-12-29T04:19:24;7.45;;;3.00;;
69414;SDS011;56608;43.530;-5.652;2022-12-29T04:20:25;9.05;;;3.20;;
69414;SDS011;56608;43.530;-5.652;2022-12-29T04:21:45;8.23;;;3.30;;
69414;SDS011;56608;43.530;-5.652;2022-12-29T04:22:47;8.80;;;3.65;;
69414;SDS011;56608;43.530;-5.652;2022-12-29T04:23:48;5.82;;;2.60;;
69414;SDS011;56608;43.530;-5.652;2022-12-29T04:24:49;6.65;;;2.70;;
69414;SDS011;56608;43.530;-5.652;2022-12-29T04:25:51;10.27;;;4.50;;
69414;SDS011;56608;43.530;-5.652;2022-12-29T04:26:52;16.90;;;5.40;;
69414;SDS011;56608;43.530;-5.652;2022-12-29T04:27:53;19.50;;;7.50;;
69414;SDS011;56608;43.530;-5.652;2022-12-29T04:28:55;21.87;;;8.02;;
69414;SDS011;56608;43.530;-5.652;2022-12-29T04:29:56;28.23;;;10.38;;
69414;SDS011;56608;43.530;-5.652;2022-12-29T04:30:56;26.37;;;10.77;;
69414;SDS011;56608;43.530;-5.652;2022-12-29T04:31:58;26.02;;;11.85;;
69414;SDS011;56608;43.530;-5.652;2022-12-29T04:32:59;23.42;;;9.95;;
69414;SDS011;56608;43.530;-5.652;2022-12-29T04:34:01;16.05;;;7.78;;
69414;SDS011;56608;43.530;-5.652;2022-12-29T04:35:02;16.45;;;7.12;;
69414;SDS011;56608;43.530;-5.652;2022-12-29T04:37:05;9.73;;;4.45;;
69414;SDS011;56608;43.530;-5.652;2022-12-29T04:38:06;9.18;;;4.25;;
69414;SDS011;56608;43.530;-5.652;2022-12-29T04:39:08;8.95;;;3.20;;
69414;SDS011;56608;43.530;-5.652;2022-12-29T04:40:09;8.60;;;3.80;;
69414;SDS011;56608;43.530;-5.652;2022-12-29T04:41:11;6.97;;;3.25;;
69414;SDS011;56608;43.530;-5.652;2022-12-29T04:42:13;7.18;;;2.75;;
69414;SDS011;56608;43.530;-5.652;2022-12-29T04:43:14;6.05;;;2.47;;
69414;SDS011;56608;43.530;-5.652;2022-12-29T04:44:16;5.62;;;2.35;;
69414;SDS011;56608;43.530;-5.652;2022-12-29T04:45:17;3.92;;;1.92;;
69414;SDS011;56608;43.530;-5.652;2022-12-29T04:46:18;4.40;;;1.90;;
69414;SDS011;56608;43.530;-5.652;2022-12-29T04:47:20;2.92;;;2.00;;
69414;SDS011;56608;43.530;-5.652;2022-12-29T04:48:21;4.93;;;2.15;;
69414;SDS011;56608;43.530;-5.652;2022-12-29T04:49:23;7.10;;;2.60;;
69414;SDS011;56608;43.530;-5.652;2022-12-29T04:50:24;4.10;;;2.00;;
69414;SDS011;56608;43.530;-5.652;2022-12-29T04:51:27;4.28;;;2.05;;
69414;SDS011;56608;43.530;-5.652;2022-12-29T04:52:28;3.65;;;2.30;;
69414;SDS011;56608;43.530;-5.652;2022-12-29T04:53:29;6.22;;;2.50;;
69414;SDS011;56608;43.530;-5.652;2022-12-29T04:54:31;6.57;;;2.87;;
69414;SDS011;56608;43.530;-5.652;2022-12-29T04:55:32;7.12;;;3.53;;
69414;SDS011;56608;43.530;-5.652;2022-12-29T04:56:34;6.97;;;3.80;;
69414;SDS011;56608;43.530;-5.652;2022-12-29T04:57:35;6.57;;;3.22;;
69414;SDS011;56608;43.530;-5.652;2022-12-29T04:58:37;6.70;;;3.50;;
69414;SDS011;56608;43.530;-5.652;2022-12-29T04:59:38;5.72;;;3.55;;
69414;SDS011;56608;43.530;-5.652;2022-12-29T05:00:39;8.75;;;4.00;;
69414;SDS011;56608;43.530;-5.652;2022-12-29T05:01:41;6.97;;;4.12;;
69414;SDS011;56608;43.530;-5.652;2022-12-29T05:02:43;6.75;;;3.62;;
69414;SDS011;56608;43.530;-5.652;2022-12-29T05:03:44;7.20;;;3.70;;
69414;SDS011;56608;43.530;-5.652;2022-12-29T05:04:46;7.22;;;3.80;;
69414;SDS011;56608;43.530;-5.652;2022-12-29T05:05:47;7.75;;;4.00;;
69414;SDS011;56608;43.530;-5.652;2022-12-29T05:06:48;5.78;;;3.55;;
69414;SDS011;56608;43.530;-5.652;2022-12-29T05:07:50;7.07;;;3.65;;
69414;SDS011;56608;43.530;-5.652;2022-12-29T05:08:51;5.78;;;3.50;;
69414;SDS011;56608;43.530;-5.652;2022-12-29T05:09:53;10.23;;;4.32;;
69414;SDS011;56608;43.530;-5.652;2022-12-29T05:10:54;7.35;;;4.05;;
69414;SDS011;56608;43.530;-5.652;2022-12-29T05:11:55;9.02;;;4.05;;
69414;SDS011;56608;43.530;-5.652;2022-12-29T05:12:57;9.35;;;4.20;;
69414;SDS011;56608;43.530;-5.652;2022-12-29T05:13:59;7.82;;;4.28;;
69414;SDS011;56608;43.530;-5.652;2022-12-29T05:15:00;8.32;;;4.53;;
69414;SDS011;56608;43.530;-5.652;2022-12-29T05:16:03;6.35;;;3.75;;
69414;SDS011;56608;43.530;-5.652;2022-12-29T05:17:04;8.20;;;4.00;;
69414;SDS011;56608;43.530;-5.652;2022-12-29T05:18:06;8.18;;;3.95;;
69414;SDS011;56608;43.530;-5.652;2022-12-29T05:19:06;6.90;;;4.20;;
69414;SDS011;56608;43.530;-5.652;2022-12-29T05:20:09;9.25;;;4.40;;
69414;SDS011;56608;43.530;-5.652;2022-12-29T05:21:10;7.00;;;4.43;;
69414;SDS011;56608;43.530;-5.652;2022-12-29T05:22:12;9.60;;;4.65;;
69414;SDS011;56608;43.530;-5.652;2022-12-29T05:23:13;8.20;;;4.57;;
69414;SDS011;56608;43.530;-5.652;2022-12-29T05:25:16;7.25;;;4.20;;
69414;SDS011;56608;43.530;-5.652;2022-12-29T05:26:17;7.50;;;4.10;;
69414;SDS011;56608;43.530;-5.652;2022-12-29T05:27:18;8.15;;;4.05;;
69414;SDS011;56608;43.530;-5.652;2022-12-29T05:28:20;6.55;;;4.12;;
69414;SDS011;56608;43.530;-5.652;2022-12-29T05:29:21;8.45;;;4.28;;
69414;SDS011;56608;43.530;-5.652;2022-12-29T05:30:22;9.18;;;4.70;;
69414;SDS011;56608;43.530;-5.652;2022-12-29T05:31:24;7.43;;;4.23;;
69414;SDS011;56608;43.530;-5.652;2022-12-29T05:32:25;7.43;;;4.30;;
69414;SDS011;56608;43.530;-5.652;2022-12-29T05:33:27;10.73;;;4.62;;
69414;SDS011;56608;43.530;-5.652;2022-12-29T05:34:28;9.25;;;4.28;;
69414;SDS011;56608;43.530;-5.652;2022-12-29T05:35:29;6.60;;;4.55;;
69414;SDS011;56608;43.530;-5.652;2022-12-29T05:36:31;7.32;;;4.40;;
69414;SDS011;56608;43.530;-5.652;2022-12-29T05:37:32;7.80;;;4.50;;
69414;SDS011;56608;43.530;-5.652;2022-12-29T05:38:33;9.80;;;4.90;;
69414;SDS011;56608;43.530;-5.652;2022-12-29T05:39:35;9.30;;;4.97;;
69414;SDS011;56608;43.530;-5.652;2022-12-29T05:40:36;6.93;;;4.55;;
69414;SDS011;56608;43.530;-5.652;2022-12-29T05:41:37;7.82;;;4.93;;
69414;SDS011;56608;43.530;-5.652;2022-12-29T05:42:39;8.70;;;4.80;;
69414;SDS011;56608;43.530;-5.652;2022-12-29T05:43:40;8.32;;;5.03;;
69414;SDS011;56608;43.530;-5.652;2022-12-29T05:44:42;8.40;;;4.85;;
69414;SDS011;56608;43.530;-5.652;2022-12-29T05:45:42;9.60;;;4.70;;
69414;SDS011;56608;43.530;-5.652;2022-12-29T05:46:44;8.05;;;4.70;;
69414;SDS011;56608;43.530;-5.652;2022-12-29T05:47:45;11.20;;;5.65;;
69414;SDS011;56608;43.530;-5.652;2022-12-29T05:48:47;10.18;;;5.18;;
69414;SDS011;56608;43.530;-5.652;2022-12-29T05:49:48;7.72;;;4.55;;
69414;SDS011;56608;43.530;-5.652;2022-12-29T05:50:50;9.60;;;5.10;;
69414;SDS011;56608;43.530;-5.652;2022-12-29T05:51:52;7.62;;;4.95;;
69414;SDS011;56608;43.530;-5.652;2022-12-29T05:52:53;8.20;;;4.78;;
69414;SDS011;56608;43.530;-5.652;2022-12-29T05:54:54;8.95;;;4.40;;
69414;SDS011;56608;43.530;-5.652;2022-12-29T05:55:56;6.93;;;4.70;;
69414;SDS011;56608;43.530;-5.652;2022-12-29T05:56:58;6.55;;;4.87;;
69414;SDS011;56608;43.530;-5.652;2022-12-29T05:57:59;7.93;;;5.32;;
69414;SDS011;56608;43.530;-5.652;2022-12-29T05:59:00;7.10;;;4.87;;
69414;SDS011;56608;43.530;-5.652;2022-12-29T06:00:03;7.40;;;4.50;;
69414;SDS011;56608;43.530;-5.652;2022-12-29T06:01:05;8.65;;;5.00;;
69414;SDS011;56608;43.530;-5.652;2022-12-29T06:02:07;8.75;;;5.37;;
69414;SDS011;56608;43.530;-5.652;2022-12-29T06:03:08;8.40;;;4.82;;
69414;SDS011;56608;43.530;-5.652;2022-12-29T06:04:10;8.45;;;4.75;;
69414;SDS011;56608;43.530;-5.652;2022-12-29T06:05:11;7.30;;;4.20;;
69414;SDS011;56608;43.530;-5.652;2022-12-29T06:06:12;10.53;;;4.43;;
69414;SDS011;56608;43.530;-5.652;2022-12-29T06:07:13;8.15;;;4.45;;
69414;SDS011;56608;43.530;-5.652;2022-12-29T06:08:15;8.75;;;4.60;;
69414;SDS011;56608;43.530;-5.652;2022-12-29T06:09:16;7.32;;;4.53;;
69414;SDS011;56608;43.530;-5.652;2022-12-29T06:10:18;8.63;;;4.40;;
69414;SDS011;56608;43.530;-5.652;2022-12-29T06:11:19;9.25;;;5.12;;
69414;SDS011;56608;43.530;-5.652;2022-12-29T06:12:21;6.85;;;4.70;;
69414;SDS011;56608;43.530;-5.652;2022-12-29T06:13:22;9.52;;;5.62;;
69414;SDS011;56608;43.530;-5.652;2022-12-29T06:14:23;10.55;;;5.20;;
69414;SDS011;56608;43.530;-5.652;2022-12-29T06:15:25;9.50;;;5.37;;
69414;SDS011;56608;43.530;-5.652;2022-12-29T06:16:26;9.13;;;4.93;;
69414;SDS011;56608;43.530;-5.652;2022-12-29T06:17:28;9.40;;;5.95;;
69414;SDS011;56608;43.530;-5.652;2022-12-29T06:18:28;8.17;;;4.77;;
69414;SDS011;56608;43.530;-5.652;2022-12-29T06:19:30;9.30;;;4.93;;
69414;SDS011;56608;43.530;-5.652;2022-12-29T06:20:31;8.00;;;4.90;;
69414;SDS011;56608;43.530;-5.652;2022-12-29T06:21:33;8.80;;;4.75;;
69414;SDS011;56608;43.530;-5.652;2022-12-29T06:22:34;7.68;;;5.18;;
69414;SDS011;56608;43.530;-5.652;2022-12-29T06:23:36;9.25;;;5.00;;
69414;SDS011;56608;43.530;-5.652;2022-12-29T06:24:37;7.72;;;5.25;;
69414;SDS011;56608;43.530;-5.652;2022-12-29T06:25:39;9.85;;;5.78;;
69414;SDS011;56608;43.530;-5.652;2022-12-29T06:26:40;10.50;;;5.50;;
69414;SDS011;56608;43.530;-5.652;2022-12-29T06:27:42;9.02;;;5.35;;
69414;SDS011;56608;43.530;-5.652;2022-12-29T06:28:43;8.25;;;5.65;;
69414;SDS011;56608;43.530;-5.652;2022-12-29T06:29:45;8.73;;;5.50;;
69414;SDS011;56608;43.530;-5.652;2022-12-29T06:30:46;11.20;;;5.90;;
69414;SDS011;56608;43.530;-5.652;2022-12-29T06:31:48;8.63;;;4.97;;
69414;SDS011;56608;43.530;-5.652;2022-12-29T06:32:52;9.25;;;5.45;;
69414;SDS011;56608;43.530;-5.652;2022-12-29T06:34:53;8.90;;;5.50;;
69414;SDS011;56608;43.530;-5.652;2022-12-29T06:35:54;9.90;;;5.40;;
69414;SDS011;56608;43.530;-5.652;2022-12-29T06:36:56;10.75;;;6.10;;
69414;SDS011;56608;43.530;-5.652;2022-12-29T06:37:57;9.55;;;5.25;;
69414;SDS011;56608;43.530;-5.652;2022-12-29T06:38:59;9.15;;;5.53;;
69414;SDS011;56608;43.530;-5.652;2022-12-29T06:40:00;9.40;;;5.20;;
69414;SDS011;56608;43.530;-5.652;2022-12-29T06:41:01;9.97;;;5.23;;
69414;SDS011;56608;43.530;-5.652;2022-12-29T06:42:02;9.43;;;5.10;;
69414;SDS011;56608;43.530;-5.652;2022-12-29T06:43:04;11.00;;;5.40;;
69414;SDS011;56608;43.530;-5.652;2022-12-29T06:44:04;11.90;;;6.00;;
69414;SDS011;56608;43.530;-5.652;2022-12-29T06:45:06;8.95;;;5.90;;
69414;SDS011;56608;43.530;-5.652;2022-12-29T06:47:08;10.43;;;5.93;;
69414;SDS011;56608;43.530;-5.652;2022-12-29T06:48:10;9.23;;;5.62;;
69414;SDS011;56608;43.530;-5.652;2022-12-29T06:49:12;10.00;;;6.12;;
69414;SDS011;56608;43.530;-5.652;2022-12-29T06:50:13;11.70;;;5.80;;
69414;SDS011;56608;43.530;-5.652;2022-12-29T06:51:15;9.40;;;5.70;;
69414;SDS011;56608;43.530;-5.652;2022-12-29T06:52:16;11.15;;;6.50;;
69414;SDS011;56608;43.530;-5.652;2022-12-29T06:53:17;9.40;;;5.75;;
69414;SDS011;56608;43.530;-5.652;2022-12-29T06:54:19;11.70;;;6.00;;
69414;SDS011;56608;43.530;-5.652;2022-12-29T06:55:19;9.90;;;6.10;;
69414;SDS011;56608;43.530;-5.652;2022-12-29T06:56:22;11.98;;;6.45;;
69414;SDS011;56608;43.530;-5.652;2022-12-29T06:57:22;11.20;;;6.50;;
69414;SDS011;56608;43.530;-5.652;2022-12-29T06:58:24;9.27;;;6.10;;
69414;SDS011;56608;43.530;-5.652;2022-12-29T06:59:25;12.13;;;6.47;;
69414;SDS011;56608;43.530;-5.652;2022-12-29T07:00:27;11.48;;;6.55;;
69414;SDS011;56608;43.530;-5.652;2022-12-29T07:01:27;11.40;;;6.90;;
69414;SDS011;56608;43.530;-5.652;2022-12-29T07:02:29;9.90;;;6.37;;
69414;SDS011;56608;43.530;-5.652;2022-12-29T07:03:31;11.60;;;6.80;;
69414;SDS011;56608;43.530;-5.652;2022-12-29T07:04:32;11.93;;;7.23;;
69414;SDS011;56608;43.530;-5.652;2022-12-29T07:05:33;10.90;;;6.45;;